Latest Weather Observations for Thargomindah

IDQ60801

Issued at 8:32 pm EST Sunday 19 April 2015 (issued every 30 minutes, with the page automatically refreshed every 10 minutes)

About weather observations | Map of weather stations | Latest weather observations for QLD | Other Formats
Station Details ID: 045025 Name: THARGOMINDAH AIRPORT Lat: -27.99 Lon: 143.81 Height: 130.89 m
Data from the previous 72 hours. | See also: Recent months at Thargomindah
Date/Time
EST
Temp
°C
App
Temp
°C
Dew
Point
Rel
Hum
%
Delta-T
°C
Wind Press
QNH
hPa
Press
MSL
hPa
Rain
since 9 am
mm
Dir
 
Spd
km/h
Gust
km/h
Spd
kts
Gust
kts
19/08:30pm 16.5 10.3 8.0 57 4.3 S 30 41 16 22 1026.1 - 0.0
19/08:00pm 16.8 10.8 8.8 59 4.1 S 30 41 16 22 1025.8 - 0.0
19/07:30pm 17.2 11.4 9.4 60 4.1 S 30 39 16 21 1025.3 - 0.0
19/07:00pm 17.8 12.1 9.9 60 4.2 S 30 37 16 20 1024.8 - 0.0
19/06:30pm 18.5 12.8 9.8 57 4.6 S 30 41 16 22 1024.4 - 0.0
19/06:00pm 18.6 13.3 9.7 56 4.7 S 28 37 15 20 1024.0 1023.3 0.0
19/05:30pm 19.4 13.8 10.1 55 5.0 S 30 37 16 20 1023.5 - 0.0
19/05:00pm 20.9 15.2 9.8 49 6.0 S 30 43 16 23 1023.2 - 0.0
19/04:30pm 20.9 14.8 8.2 44 6.7 S 30 37 16 20 1023.0 - 0.0
19/04:00pm 22.0 15.6 9.2 44 6.9 S 33 43 18 23 1022.4 - 0.0
19/03:30pm 22.4 16.3 9.9 45 6.8 S 32 41 17 22 1022.3 - 0.0
19/03:00pm 22.2 16.6 8.7 42 7.2 S 28 39 15 21 1022.2 1021.6 0.0
19/02:30pm 23.0 18.2 8.7 40 7.7 S 24 32 13 17 1022.1 - 0.0
19/02:00pm 22.8 17.5 8.5 40 7.6 S 26 37 14 20 1022.1 - 0.0
19/01:30pm 22.3 16.5 8.1 40 7.5 S 28 44 15 24 1022.3 - 0.0
19/01:00pm 22.1 16.5 8.6 42 7.2 S 28 39 15 21 1022.5 - 0.0
19/12:30pm 22.3 17.4 9.8 45 6.8 S 26 37 14 20 1022.7 - 0.0
19/12:00pm 21.5 15.4 9.7 47 6.4 S 32 39 17 21 1023.1 1022.5 0.0
19/11:30am 21.0 15.5 9.3 47 6.3 S 28 39 15 21 1023.5 - 0.0
19/11:00am 20.7 15.2 10.5 52 5.6 S 30 41 16 22 1023.6 - 0.0
19/10:30am 19.7 14.0 9.9 53 5.3 S 30 41 16 22 1023.9 - 0.0
19/10:00am 19.1 14.8 10.6 58 4.6 SSE 24 35 13 19 1023.9 - 0.0
19/09:30am 18.5 14.5 11.8 65 3.7 SSE 24 33 13 18 1023.7 - 0.0
19/09:00am 17.6 14.7 12.3 71 2.9 S 19 26 10 14 1023.7 1023.2 3.4
19/08:30am 16.5 13.9 12.1 75 2.4 S 17 20 9 11 1023.3 - 3.4
19/08:00am 15.8 14.0 12.2 79 2.0 S 13 17 7 9 1022.9 - 3.4
19/07:30am 15.1 13.6 11.9 81 1.7 S 11 15 6 8 1022.7 - 3.4
19/07:00am 14.8 12.9 11.8 82 1.6 S 13 17 7 9 1022.2 - 3.4
19/06:30am 15.3 13.0 11.7 79 2.0 S 15 19 8 10 1021.7 - 3.4
19/06:00am 15.6 12.9 11.8 78 2.1 S 17 22 9 12 1021.1 1020.5 3.4
19/05:30am 16.0 13.0 11.8 76 2.3 S 19 28 10 15 1020.4 - 3.4
19/05:00am 16.5 12.6 12.1 75 2.4 S 24 32 13 17 1020.2 - 3.4
19/04:30am 17.1 14.1 12.6 75 2.5 S 20 28 11 15 1020.1 - 3.4
19/04:00am 17.5 14.8 13.6 78 2.2 SSW 20 26 11 14 1019.8 - 3.4
19/03:30am 17.9 15.9 15.0 83 1.7 S 19 32 10 17 1019.6 - 3.4
19/03:00am 18.4 16.0 15.3 82 1.8 S 22 32 12 17 1019.2 1018.4 3.4
19/02:30am 18.6 17.1 16.2 86 1.4 S 19 24 10 13 1019.3 - 3.4
19/02:00am 18.9 17.3 16.5 86 1.4 SSW 20 26 11 14 1019.4 - 3.4
19/01:30am 18.8 18.4 17.1 90 1.0 SW 15 17 8 9 1019.6 - 3.4
19/01:00am 18.7 19.4 17.0 90 1.0 SSW 9 11 5 6 1019.4 - 3.4
19/12:30am 18.9 19.2 17.0 89 1.2 SSW 11 13 6 7 1019.4 - 3.4
19/12:00am 19.0 19.7 17.0 88 1.2 SSW 9 11 5 6 1019.7 1019.1 3.4
 
Date/Time
EST
Temp
°C
App
Temp
°C
Dew
Point
Rel
Hum
%
Delta-T
°C
Wind Press
QNH
hPa
Press
MSL
hPa
Rain
since 9 am
mm
Dir
 
Spd
km/h
Gust
km/h
Spd
kts
Gust
kts
18/11:30pm 19.2 19.8 16.8 86 1.5 SSW 9 11 5 6 1019.4 - 3.4
18/11:00pm 19.5 19.8 16.9 85 1.6 SSW 11 15 6 8 1019.5 - 3.4
18/10:30pm 19.8 19.3 16.8 83 1.8 SW 15 20 8 11 1019.5 - 3.4
18/10:00pm 19.9 20.9 17.7 87 1.4 SW 9 13 5 7 1019.3 - 3.4
18/09:30pm 20.2 21.4 18.3 89 1.2 WSW 9 13 5 7 1019.1 - 3.4
18/09:00pm 20.3 22.0 18.4 89 1.2 SSW 7 9 4 5 1018.7 1018.1 3.4
18/08:30pm 20.4 22.0 18.3 88 1.3 W 7 9 4 5 1018.6 - 3.4
18/08:00pm 20.8 22.6 18.4 86 1.5 WSW 6 9 3 5 1018.3 - 3.4
18/07:30pm 21.8 24.1 17.8 78 2.5 N 2 7 1 4 1018.0 - 3.2
18/07:00pm 21.8 23.7 17.6 77 2.6 NNE 4 6 2 3 1017.6 - 3.2
18/06:30pm 21.9 24.6 17.7 77 2.6 CALM 0 0 0 0 1017.1 - 3.2
18/06:00pm 21.8 24.0 17.4 76 2.7 E 2 6 1 3 1017.1 1016.3 3.2
18/05:30pm 21.9 23.4 17.7 77 2.6 ENE 6 9 3 5 1016.8 - 3.2
18/05:00pm 21.9 23.7 17.3 75 2.8 SSE 4 9 2 5 1016.6 - 3.2
18/04:30pm 22.5 25.1 18.3 77 2.6 ENE 2 7 1 4 1016.5 - 3.0
18/04:00pm 21.8 23.5 18.6 82 2.0 SSE 7 9 4 5 1016.6 - 3.0
18/03:30pm 21.4 23.1 18.0 81 2.1 ESE 6 9 3 5 1016.7 - 3.0
18/03:00pm 20.9 22.7 17.5 81 2.1 SE 4 9 2 5 1017.0 1016.2 3.0
18/02:30pm 20.5 22.5 17.9 85 1.6 SSW 4 9 2 5 1017.0 - 3.0
18/02:00pm 20.2 21.3 18.0 87 1.4 SSW 9 11 5 6 1017.3 - 2.8
18/01:30pm 20.3 20.9 18.6 90 1.1 SSW 13 15 7 8 1017.5 - 2.8
18/01:00pm 20.5 20.6 18.3 87 1.4 SSW 15 19 8 10 1017.5 - 2.0
18/12:30pm 20.7 20.4 18.3 86 1.5 SSW 17 20 9 11 1018.0 - 1.6
18/12:00pm 21.7 20.8 18.3 81 2.1 SW 20 28 11 15 1018.4 1017.7 0.2
18/11:30am 23.6 22.2 15.6 61 4.8 SW 17 20 9 11 1018.5 - 0.0
18/11:00am 24.7 23.7 14.5 53 6.1 S 13 20 7 11 1018.4 - 0.0
18/10:30am 25.0 23.6 14.5 52 6.3 S 15 22 8 12 1018.3 - 0.0
18/10:00am 25.1 22.8 14.6 52 6.3 S 20 26 11 14 1018.4 - 0.0
18/09:30am 24.6 21.3 14.1 52 6.2 S 24 32 13 17 1018.3 - 0.0
18/09:00am 24.3 22.0 14.1 53 6.0 S 19 26 10 14 1018.3 1017.7 0.0
18/08:30am 23.9 20.6 14.0 54 5.8 SSW 24 32 13 17 1018.0 - 0.0
18/08:00am 24.0 21.4 13.8 53 6.0 SSW 20 26 11 14 1017.7 - 0.0
18/07:30am 23.9 21.5 13.7 53 6.0 SSW 19 24 10 13 1017.3 - 0.0
18/07:00am 23.8 22.4 13.4 52 6.1 SSW 13 19 7 10 1017.0 - 0.0
18/06:30am 23.8 21.3 13.4 52 6.1 S 19 24 10 13 1016.1 - 0.0
18/06:00am 23.8 21.2 13.1 51 6.2 SSW 19 24 10 13 1015.6 1015.0 0.0
18/05:30am 24.1 21.4 13.0 50 6.5 SSW 19 26 10 14 1015.1 - 0.0
18/05:00am 24.3 21.0 12.9 49 6.6 SSW 22 32 12 17 1014.7 - 0.0
18/04:30am 24.7 21.2 12.3 46 7.1 SSW 22 30 12 16 1014.4 - 0.0
18/04:00am 25.1 21.0 11.3 42 7.8 SW 24 33 13 18 1014.3 - 0.0
18/03:30am 26.5 22.6 9.4 34 9.5 WSW 20 32 11 17 1014.0 - 0.0
18/03:00am 26.1 23.1 7.7 31 9.9 NW 13 30 7 16 1014.0 1013.4 0.0
18/02:30am 25.7 22.6 7.3 31 9.8 W 13 20 7 11 1013.6 - 0.0
18/02:00am 25.7 22.2 7.3 31 9.8 N 15 17 8 9 1013.5 - 0.0
18/01:30am 25.6 22.5 7.2 31 9.7 NNE 13 17 7 9 1013.6 - 0.0
18/01:00am 25.5 22.7 7.1 31 9.7 NNE 11 15 6 8 1014.1 - 0.0
18/12:30am 25.3 22.5 7.0 31 9.6 NNE 11 13 6 7 1014.2 - 0.0
18/12:00am 25.2 22.4 6.9 31 9.6 NNE 11 13 6 7 1014.5 1013.8 0.0
 
Date/Time
EST
Temp
°C
App
Temp
°C
Dew
Point
Rel
Hum
%
Delta-T
°C
Wind Press
QNH
hPa
Press
MSL
hPa
Rain
since 9 am
mm
Dir
 
Spd
km/h
Gust
km/h
Spd
kts
Gust
kts
17/11:30pm 25.6 22.5 7.2 31 9.7 NE 13 15 7 8 1014.8 - 0.0
17/11:00pm 25.7 22.9 6.8 30 9.9 NNE 11 13 6 7 1015.2 - 0.0
17/10:30pm 26.1 23.6 6.7 29 10.2 NNE 9 11 5 6 1015.5 - 0.0
17/10:00pm 26.7 24.2 6.7 28 10.6 NNE 9 9 5 5 1015.5 - 0.0
17/09:30pm 27.2 24.7 6.6 27 10.9 NNE 9 11 5 6 1015.3 - 0.0
17/09:00pm 28.0 25.5 6.7 26 11.3 NE 9 11 5 6 1015.3 1014.7 0.0
17/08:30pm 28.5 26.0 6.6 25 11.7 NE 9 11 5 6 1015.3 - 0.0
17/08:00pm 29.1 26.2 6.5 24 12.1 NE 11 13 6 7 1015.1 - 0.0
17/07:30pm 29.4 26.4 6.1 23 12.4 NE 11 15 6 8 1014.9 - 0.0
17/07:00pm 29.9 26.9 5.9 22 12.7 NE 11 13 6 7 1014.7 - 0.0
17/06:30pm 30.5 27.4 5.7 21 13.2 NE 11 15 6 8 1014.5 - 0.0
17/06:00pm 31.6 28.6 5.9 20 13.8 NNE 11 15 6 8 1014.6 1014.0 0.0
17/05:30pm 32.3 28.3 5.0 18 14.5 NNE 15 20 8 11 1013.7 - 0.0
17/05:00pm 33.2 28.4 5.7 18 14.8 NE 20 24 11 13 1013.4 - 0.0
17/04:30pm 33.5 29.4 4.2 16 15.4 N 15 26 8 14 1013.5 - 0.0
17/04:00pm 33.5 29.7 5.9 18 14.9 N 15 26 8 14 1013.7 - 0.0
17/03:30pm 33.7 29.0 6.1 18 15.0 NNE 20 30 11 16 1014.0 - 0.0
17/03:00pm 34.0 28.4 3.7 15 15.9 N 22 32 12 17 1014.2 1013.7 0.0
17/02:30pm 34.3 29.5 4.9 16 15.7 N 19 41 10 22 1014.6 - 0.0
17/02:00pm 34.1 29.1 4.7 16 15.7 N 20 32 11 17 1014.9 - 0.0
17/01:30pm 33.2 28.6 5.7 18 14.8 N 19 33 10 18 1015.4 - 0.0
17/01:00pm 32.6 27.9 5.2 18 14.6 N 19 32 10 17 1016.1 - 0.0
17/12:30pm 32.8 27.9 6.9 20 14.2 NNE 22 32 12 17 1016.8 - 0.0
17/12:00pm 32.2 26.8 7.8 22 13.5 NNE 26 35 14 19 1017.6 1016.9 0.0
17/11:30am 31.6 26.0 7.3 22 13.3 NNE 26 37 14 20 1018.2 - 0.0
17/11:00am 31.5 25.7 7.9 23 13.1 N 28 39 15 21 1018.6 - 0.0
17/10:30am 31.1 25.2 7.5 23 12.9 N 28 37 15 20 1018.9 - 0.0
17/10:00am 30.3 24.2 8.1 25 12.3 N 30 43 16 23 1019.3 - 0.0
17/09:30am 29.5 23.0 8.0 26 11.8 N 32 43 17 23 1019.4 - 0.0
17/09:00am 28.6 22.0 7.8 27 11.3 N 32 39 17 21 1019.3 1018.7 0.0
17/08:30am 27.7 21.9 8.1 29 10.7 N 28 35 15 19 1019.1 - 0.0
17/08:00am 26.7 21.7 8.2 31 10.0 NNE 24 32 13 17 1018.9 - 0.0
17/07:30am 26.2 20.8 8.2 32 9.7 NNE 26 33 14 18 1018.6 - 0.0
17/07:00am 26.1 21.1 8.1 32 9.7 N 24 32 13 17 1018.2 - 0.0
17/06:30am 26.0 21.0 8.0 32 9.7 NNE 24 33 13 18 1017.8 - 0.0
17/06:00am 26.0 21.0 8.0 32 9.7 NNE 24 30 13 16 1017.5 1016.8 0.0
17/05:30am 26.2 21.5 7.7 31 9.9 NNE 22 28 12 15 1017.2 - 0.0
17/05:00am 26.6 21.6 8.1 31 10.0 NNE 24 35 13 19 1017.0 - 0.0
17/04:30am 26.7 21.6 7.7 30 10.2 NNE 24 33 13 18 1017.0 - 0.0
17/04:00am 26.8 21.4 7.8 30 10.2 NNE 26 39 14 21 1017.1 - 0.0
17/03:30am 26.9 22.2 7.9 30 10.3 NNE 22 32 12 17 1017.3 - 0.0
17/03:00am 27.1 22.7 7.5 29 10.5 NNE 20 30 11 16 1017.7 1017.0 0.0
17/02:30am 27.5 23.4 7.9 29 10.6 NNE 19 24 10 13 1018.0 - 0.0
17/02:00am 27.8 24.0 7.6 28 10.9 NNE 17 28 9 15 1018.4 - 0.0
17/01:30am 27.7 23.9 7.5 28 10.9 NNE 17 20 9 11 1018.7 - 0.0
17/01:00am 27.9 24.1 7.7 28 10.9 NE 17 20 9 11 1019.0 - 0.0
17/12:30am 28.4 24.2 7.6 27 11.3 NE 19 28 10 15 1019.2 - 0.0
17/12:00am 28.0 25.4 7.8 28 10.9 ENE 11 19 6 10 1019.6 1019.0 0.0
 
Date/Time
EST
Temp
°C
App
Temp
°C
Dew
Point
Rel
Hum
%
Delta-T
°C
Wind Press
QNH
hPa
Press
MSL
hPa
Rain
since 9 am
mm
Dir
 
Spd
km/h
Gust
km/h
Spd
kts
Gust
kts
16/11:30pm 27.2 24.6 7.6 29 10.6 ENE 11 15 6 8 1019.6 - 0.0
16/11:00pm 27.0 24.3 7.5 29 10.5 ENE 11 13 6 7 1019.5 - 0.0
16/10:30pm 27.3 24.9 7.2 28 10.8 NNE 9 11 5 6 1019.7 - 0.0
16/10:00pm 27.9 25.5 7.2 27 11.1 NNE 9 11 5 6 1019.6 - 0.0
16/09:30pm 28.6 26.4 7.8 27 11.3 NE 9 11 5 6 1019.3 - 0.0
16/09:00pm 29.2 26.8 7.2 25 11.9 NE 9 11 5 6 1019.2 1018.6 0.0

Other Formats:

Comma delimited format used in spreadsheet applications
http://www.bom.gov.au/fwo/IDQ60801/IDQ60801.95492.axf

JavaScript Object Notation format (JSON) in row-major order
http://www.bom.gov.au/fwo/IDQ60801/IDQ60801.95492.json